createdAt,value
2019-02-22T00:02:25.205Z,8.30
2019-02-22T00:04:54.506Z,8.30
2019-02-22T00:07:23.983Z,8.30
2019-02-22T00:09:53.345Z,8.30
2019-02-22T00:12:22.767Z,8.30
2019-02-22T00:14:52.661Z,8.30
2019-02-22T00:17:22.113Z,8.30
2019-02-22T00:19:51.548Z,8.30
2019-02-22T00:22:21.003Z,8.30
2019-02-22T00:24:50.402Z,8.30
2019-02-22T00:27:19.819Z,8.30
2019-02-22T00:29:49.262Z,8.30
2019-02-22T00:32:18.723Z,8.30
2019-02-22T00:34:48.184Z,8.30
2019-02-22T00:37:18.012Z,8.30
2019-02-22T00:39:47.725Z,8.30
2019-02-22T00:42:17.146Z,8.30
2019-02-22T00:44:46.795Z,8.30
2019-02-22T00:47:16.205Z,8.30
2019-02-22T00:49:45.512Z,8.30
2019-02-22T00:52:14.965Z,8.30
2019-02-22T00:54:44.433Z,8.30
2019-02-22T00:57:13.827Z,8.20
2019-02-22T00:59:43.187Z,8.30
2019-02-22T01:02:12.608Z,8.30
2019-02-22T01:07:17.191Z,8.30
2019-02-22T01:09:46.701Z,8.30
2019-02-22T01:12:16.035Z,8.30
2019-02-22T01:14:45.349Z,8.30
2019-02-22T01:17:14.789Z,8.40
2019-02-22T01:19:44.111Z,8.40
2019-02-22T01:22:13.485Z,8.40
2019-02-22T01:24:42.971Z,8.40
2019-02-22T01:27:12.359Z,8.50
2019-02-22T01:29:41.689Z,8.50
2019-02-22T01:32:11.143Z,8.50
2019-02-22T01:34:40.593Z,8.50
2019-02-22T01:37:10.250Z,8.50
2019-02-22T01:39:39.669Z,8.50
2019-02-22T01:42:08.976Z,8.50
2019-02-22T01:44:38.383Z,8.50
2019-02-22T01:47:07.838Z,8.40
2019-02-22T01:49:37.235Z,8.40
2019-02-22T01:52:06.656Z,8.50
2019-02-22T01:54:36.051Z,8.50
2019-02-22T01:57:05.882Z,8.50
2019-02-22T01:59:35.237Z,8.50
2019-02-22T02:02:04.623Z,8.60
2019-02-22T02:04:33.971Z,8.60
2019-02-22T02:07:03.415Z,8.50
2019-02-22T02:09:32.828Z,8.50
2019-02-22T02:12:02.237Z,8.50
2019-02-22T02:14:31.662Z,8.50
2019-02-22T02:17:01.008Z,8.40
2019-02-22T02:19:30.547Z,8.30
2019-02-22T02:22:00.549Z,8.30
2019-02-22T02:24:30.937Z,8.40
2019-02-22T02:27:00.350Z,8.40
2019-02-22T02:29:29.776Z,8.40
2019-02-22T02:31:59.553Z,8.40
2019-02-22T02:34:28.957Z,8.40
2019-02-22T02:36:58.317Z,8.30
2019-02-22T02:39:27.682Z,8.40
2019-02-22T02:41:57.021Z,8.30
2019-02-22T02:44:26.402Z,8.40
2019-02-22T02:46:56.261Z,8.30
2019-02-22T02:49:25.612Z,8.30
2019-02-22T02:51:55.032Z,8.30
2019-02-22T02:54:25.100Z,8.30
2019-02-22T02:56:54.824Z,8.30
2019-02-22T02:59:24.629Z,8.30
2019-02-22T03:01:54.018Z,8.40
2019-02-22T03:04:23.433Z,8.40
2019-02-22T03:07:07.272Z,8.40
2019-02-22T03:09:37.165Z,8.40
2019-02-22T03:12:06.549Z,8.30
2019-02-22T03:14:35.867Z,8.30
2019-02-22T03:17:05.224Z,8.30
2019-02-22T03:19:34.605Z,8.30
2019-02-22T03:22:04.016Z,8.30
2019-02-22T03:24:33.406Z,8.30
2019-02-22T03:27:03.168Z,8.30
2019-02-22T03:29:32.583Z,8.30
2019-02-22T03:32:02.037Z,8.30
2019-02-22T03:34:31.740Z,8.30
2019-02-22T03:37:01.144Z,8.30
2019-02-22T03:39:30.545Z,8.20
2019-02-22T03:41:59.950Z,8.20
2019-02-22T03:44:29.424Z,8.10
2019-02-22T03:46:58.836Z,8.10
2019-02-22T03:49:28.615Z,8.20
2019-02-22T03:51:59.565Z,8.20
2019-02-22T03:54:29.383Z,8.10
2019-02-22T03:56:58.760Z,8.10
2019-02-22T03:59:28.839Z,8.10
2019-02-22T04:01:58.887Z,8.10
2019-02-22T04:04:28.327Z,8.10
2019-02-22T04:06:57.675Z,8.10
2019-02-22T04:09:27.104Z,8.10
2019-02-22T04:11:56.557Z,8.10
2019-02-22T04:14:25.879Z,8.10
2019-02-22T04:16:55.282Z,8.10
2019-02-22T04:19:25.646Z,8.10
2019-02-22T04:21:55.000Z,8.10
2019-02-22T04:24:24.699Z,8.10
2019-02-22T04:26:54.181Z,8.10
2019-02-22T04:29:24.234Z,8.10
2019-02-22T04:31:53.648Z,8.10
2019-02-22T04:34:23.050Z,8.10
2019-02-22T04:36:52.888Z,8.10
2019-02-22T04:39:22.290Z,8.10
2019-02-22T04:41:58.006Z,8.10
2019-02-22T04:44:22.947Z,8.10
2019-02-22T04:46:52.771Z,8.00
2019-02-22T04:49:22.206Z,8.00
2019-02-22T04:51:51.595Z,8.00
2019-02-22T04:54:20.909Z,8.10
2019-02-22T04:56:50.333Z,8.20
2019-02-22T04:59:19.968Z,8.20
2019-02-22T05:04:37.758Z,8.20
2019-02-22T05:07:07.136Z,8.20
2019-02-22T05:09:36.504Z,8.20
2019-02-22T05:12:10.823Z,8.20
2019-02-22T05:14:37.112Z,8.20
2019-02-22T05:17:06.533Z,8.10
2019-02-22T05:19:35.970Z,8.10
2019-02-22T05:22:05.349Z,8.00
2019-02-22T05:24:34.756Z,7.90
2019-02-22T05:27:04.102Z,7.90
2019-02-22T05:29:33.560Z,7.70
2019-02-22T05:32:03.404Z,7.70
2019-02-22T05:34:32.766Z,7.80
2019-02-22T05:37:02.109Z,7.70
2019-02-22T05:39:31.500Z,7.60
2019-02-22T05:42:00.860Z,7.60
2019-02-22T05:44:30.205Z,7.70
2019-02-22T05:47:00.814Z,7.50
2019-02-22T05:49:30.654Z,7.50
2019-02-22T05:52:00.406Z,7.40
2019-02-22T05:54:29.819Z,7.50
2019-02-22T05:56:59.208Z,7.50
2019-02-22T05:59:28.556Z,7.50
2019-02-22T06:01:57.923Z,7.40
2019-02-22T06:04:27.562Z,7.50
2019-02-22T06:06:56.978Z,7.50
2019-02-22T06:09:26.391Z,7.50
2019-02-22T06:11:55.746Z,7.40
2019-02-22T06:14:25.153Z,7.50
2019-02-22T06:16:54.580Z,7.50
2019-02-22T06:19:23.967Z,7.40
2019-02-22T06:21:53.377Z,7.40
2019-02-22T06:24:23.176Z,7.30
2019-02-22T06:26:52.554Z,7.40
2019-02-22T06:29:21.973Z,7.30
2019-02-22T06:31:51.352Z,7.30
2019-02-22T06:34:20.739Z,7.30
2019-02-22T06:37:01.146Z,7.30
2019-02-22T06:39:21.892Z,7.30
2019-02-22T06:41:51.304Z,7.30
2019-02-22T06:44:20.660Z,7.30
2019-02-22T06:46:50.108Z,7.40
2019-02-22T06:49:19.518Z,7.40
2019-02-22T06:51:48.937Z,7.40
2019-02-22T06:54:18.330Z,7.40
2019-02-22T06:56:47.731Z,7.30
2019-02-22T06:59:17.136Z,7.30
2019-02-22T07:01:49.710Z,7.30
2019-02-22T07:04:17.748Z,7.20
2019-02-22T07:06:47.166Z,7.20
2019-02-22T07:09:16.595Z,7.20
2019-02-22T07:11:56.446Z,7.30
2019-02-22T07:14:26.310Z,7.30
2019-02-22T07:16:55.852Z,7.30
2019-02-22T07:19:25.228Z,7.30
2019-02-22T07:21:55.138Z,7.30
2019-02-22T07:24:24.546Z,7.30
2019-02-22T07:26:53.993Z,7.40
2019-02-22T07:29:23.400Z,7.30
2019-02-22T07:32:04.792Z,7.30
2019-02-22T07:34:24.610Z,7.30
2019-02-22T07:37:13.104Z,7.30
2019-02-22T07:39:42.492Z,7.30
2019-02-22T07:42:11.888Z,7.30
2019-02-22T07:44:41.322Z,7.30
2019-02-22T07:47:10.818Z,7.40
2019-02-22T07:49:40.263Z,7.40
2019-02-22T07:52:09.642Z,7.40
2019-02-22T07:54:39.095Z,7.30
2019-02-22T07:57:08.502Z,7.40
2019-02-22T07:59:37.932Z,7.40
2019-02-22T08:02:07.526Z,7.40
2019-02-22T08:04:36.952Z,7.40
2019-02-22T08:07:06.276Z,7.50
2019-02-22T08:09:35.684Z,7.50
2019-02-22T08:12:05.032Z,7.50
2019-02-22T08:14:34.418Z,7.50
2019-02-22T08:17:03.826Z,7.50
2019-02-22T08:19:33.308Z,7.60
2019-02-22T08:22:03.566Z,7.60
2019-02-22T08:24:33.164Z,7.60
2019-02-22T08:27:02.526Z,7.60
2019-02-22T08:29:31.998Z,7.70
2019-02-22T08:32:01.391Z,7.70
2019-02-22T08:34:30.815Z,7.80
2019-02-22T08:37:00.180Z,7.80
2019-02-22T08:39:29.639Z,7.80
2019-02-22T08:41:58.960Z,7.80
2019-02-22T08:44:28.709Z,7.80
2019-02-22T08:46:58.154Z,7.70
2019-02-22T08:49:27.538Z,7.70
2019-02-22T08:51:57.004Z,7.70
2019-02-22T08:54:26.322Z,7.80
2019-02-22T08:56:55.725Z,7.80
2019-02-22T08:59:25.097Z,7.80
2019-02-22T09:01:54.520Z,7.90
2019-02-22T09:04:23.900Z,7.90
2019-02-22T09:06:53.294Z,7.90
2019-02-22T09:09:22.651Z,7.90
2019-02-22T09:11:52.063Z,7.90
2019-02-22T09:14:21.398Z,8.00
2019-02-22T09:16:50.706Z,8.00
2019-02-22T09:19:20.135Z,8.00
2019-02-22T09:21:49.848Z,8.10
2019-02-22T09:24:19.262Z,8.00
2019-02-22T09:26:48.656Z,8.00
2019-02-22T09:29:18.056Z,8.10
2019-02-22T09:31:48.083Z,8.10
2019-02-22T09:34:17.449Z,8.10
2019-02-22T09:36:47.601Z,8.10
2019-02-22T09:39:17.024Z,8.10
2019-02-22T09:41:46.474Z,8.10
2019-02-22T09:44:16.199Z,8.20
2019-02-22T09:46:45.644Z,8.20
2019-02-22T09:49:15.538Z,8.20
2019-02-22T09:51:44.945Z,8.20
2019-02-22T09:54:14.393Z,8.20
2019-02-22T09:56:43.819Z,8.20
2019-02-22T09:59:13.212Z,8.10
2019-02-22T10:01:42.627Z,8.10
2019-02-22T10:04:11.967Z,8.10
2019-02-22T10:06:41.393Z,8.20
2019-02-22T10:09:10.811Z,8.30
2019-02-22T10:11:40.183Z,8.30
2019-02-22T10:14:09.566Z,8.40
2019-02-22T10:16:38.936Z,8.50
2019-02-22T10:19:08.395Z,8.60
2019-02-22T10:21:37.791Z,8.60
2019-02-22T10:24:07.163Z,8.60
2019-02-22T10:26:36.533Z,8.70
2019-02-22T10:29:24.944Z,8.70
2019-02-22T10:31:54.405Z,8.80
2019-02-22T10:34:23.958Z,8.70
2019-02-22T10:36:53.321Z,8.70
2019-02-22T10:39:23.043Z,8.70
2019-02-22T10:41:52.420Z,8.80
2019-02-22T10:44:21.747Z,8.80
2019-02-22T10:46:51.262Z,8.80
2019-02-22T10:49:20.751Z,8.90
2019-02-22T10:51:50.190Z,8.90
2019-02-22T10:54:19.723Z,8.90
2019-02-22T10:56:49.204Z,8.80
2019-02-22T10:59:18.956Z,8.90
2019-02-22T11:01:48.329Z,8.90
2019-02-22T11:04:17.747Z,8.90
2019-02-22T11:06:47.169Z,9.00
2019-02-22T11:09:17.847Z,8.90
2019-02-22T11:11:47.299Z,9.00
2019-02-22T11:14:16.723Z,9.00
2019-02-22T11:16:46.147Z,9.00
2019-02-22T11:19:15.589Z,9.00
2019-02-22T11:21:45.247Z,8.90
2019-02-22T11:24:15.022Z,8.80
2019-02-22T11:26:44.634Z,8.80
2019-02-22T11:29:14.121Z,8.80
2019-02-22T11:31:43.619Z,8.80
2019-02-22T11:34:13.063Z,8.90
2019-02-22T11:36:42.461Z,8.80
2019-02-22T11:39:11.965Z,8.80
2019-02-22T11:41:41.498Z,8.80
2019-02-22T11:44:10.894Z,8.70
2019-02-22T11:46:40.369Z,8.80
2019-02-22T11:49:09.764Z,8.70
2019-02-22T11:51:39.119Z,8.60
2019-02-22T11:54:08.549Z,8.50
2019-02-22T11:56:37.967Z,8.60
2019-02-22T11:59:07.331Z,8.60
2019-02-22T12:01:36.757Z,8.70
2019-02-22T12:04:06.311Z,8.70
2019-02-22T12:06:35.761Z,8.70
2019-02-22T12:09:05.831Z,8.70
2019-02-22T12:11:35.189Z,8.70
2019-02-22T12:14:04.632Z,8.80
2019-02-22T12:16:33.951Z,8.70
2019-02-22T12:19:03.365Z,8.70
2019-02-22T12:21:32.789Z,8.80
2019-02-22T12:24:02.240Z,8.70
2019-02-22T12:26:31.971Z,8.60
2019-02-22T12:29:01.536Z,8.70
2019-02-22T12:31:30.933Z,8.80
2019-02-22T12:34:00.441Z,8.80
2019-02-22T12:36:29.855Z,8.80
2019-02-22T12:38:59.269Z,8.80
2019-02-22T12:41:28.652Z,8.80
2019-02-22T12:43:59.947Z,8.80
2019-02-22T12:46:29.161Z,8.90
2019-02-22T12:48:58.505Z,8.90
2019-02-22T12:51:27.991Z,8.90
2019-02-22T12:53:57.353Z,8.90
2019-02-22T12:56:55.975Z,8.90
2019-02-22T12:58:57.779Z,8.80
2019-02-22T13:01:27.219Z,8.90
2019-02-22T13:03:56.681Z,8.90
2019-02-22T13:06:26.072Z,9.00
2019-02-22T13:08:55.479Z,9.00
2019-02-22T13:11:24.805Z,9.10
2019-02-22T13:13:54.121Z,9.00
2019-02-22T13:16:23.473Z,9.00
2019-02-22T13:18:52.879Z,9.00
2019-02-22T13:21:22.279Z,9.00
2019-02-22T13:23:51.699Z,9.10
2019-02-22T13:26:21.480Z,9.10
2019-02-22T13:28:50.889Z,9.10
2019-02-22T13:31:29.680Z,9.10
2019-02-22T13:33:51.457Z,9.00
2019-02-22T13:36:20.932Z,9.10
2019-02-22T13:38:50.325Z,9.10
2019-02-22T13:41:19.679Z,9.20
2019-02-22T13:43:49.004Z,9.10
2019-02-22T13:46:18.353Z,8.90
2019-02-22T13:48:47.843Z,8.90
2019-02-22T13:51:17.251Z,9.00
2019-02-22T13:53:46.779Z,8.90
2019-02-22T13:56:16.126Z,8.90
2019-02-22T13:58:45.505Z,8.90
2019-02-22T14:01:15.023Z,9.00
2019-02-22T14:03:44.473Z,9.10
2019-02-22T14:06:13.952Z,9.10
2019-02-22T14:08:43.652Z,9.00
2019-02-22T14:11:13.109Z,8.90
2019-02-22T14:13:42.593Z,9.00
2019-02-22T14:16:12.351Z,8.80
2019-02-22T14:18:41.830Z,8.90
2019-02-22T14:21:13.481Z,8.80
2019-02-22T14:23:42.943Z,8.80
2019-02-22T14:26:12.344Z,8.80
2019-02-22T14:28:41.688Z,8.90
2019-02-22T14:31:11.425Z,8.80
2019-02-22T14:33:42.021Z,8.70
2019-02-22T14:36:11.661Z,8.70
2019-02-22T14:38:41.377Z,8.70
2019-02-22T14:41:10.844Z,8.70
2019-02-22T14:43:40.165Z,8.60
2019-02-22T14:46:09.664Z,8.70
2019-02-22T14:48:39.066Z,8.70
2019-02-22T14:51:08.517Z,8.70
2019-02-22T14:53:37.955Z,8.70
2019-02-22T14:56:07.474Z,8.60
2019-02-22T14:58:36.864Z,8.50
2019-02-22T15:01:06.506Z,8.60
2019-02-22T15:03:36.038Z,8.50
2019-02-22T15:06:05.341Z,8.50
2019-02-22T15:08:34.731Z,8.30
2019-02-22T15:11:04.141Z,8.30
2019-02-22T15:13:33.529Z,8.20
2019-02-22T15:16:13.667Z,8.20
2019-02-22T15:18:43.072Z,8.20
2019-02-22T15:21:12.435Z,8.30
2019-02-22T15:23:41.847Z,8.20
2019-02-22T15:26:11.333Z,8.30
2019-02-22T15:28:40.766Z,8.20
2019-02-22T15:31:10.219Z,8.10
2019-02-22T15:33:40.261Z,8.20
2019-02-22T15:36:09.823Z,8.10
2019-02-22T15:38:39.591Z,8.20
2019-02-22T15:41:10.115Z,8.10
2019-02-22T15:43:39.732Z,8.10
2019-02-22T15:46:12.401Z,8.10
2019-02-22T15:48:40.620Z,8.10
2019-02-22T15:51:09.965Z,8.00
2019-02-22T15:53:39.392Z,8.00
2019-02-22T15:56:11.947Z,7.90
2019-02-22T15:58:41.276Z,8.00
2019-02-22T16:01:10.644Z,8.00
2019-02-22T16:04:17.108Z,7.90
2019-02-22T16:06:47.129Z,7.90
2019-02-22T16:09:16.704Z,7.90
2019-02-22T16:11:46.091Z,7.90
2019-02-22T16:14:15.409Z,7.80
2019-02-22T16:16:45.077Z,7.80
2019-02-22T16:19:14.808Z,7.80
2019-02-22T16:21:44.148Z,7.80
2019-02-22T16:24:13.918Z,7.80
2019-02-22T16:26:43.466Z,7.80
2019-02-22T16:29:13.521Z,7.80
2019-02-22T16:31:42.961Z,7.70
2019-02-22T16:34:12.556Z,7.60
2019-02-22T16:36:42.345Z,7.70
2019-02-22T16:39:11.810Z,7.70
2019-02-22T16:41:41.205Z,7.60
2019-02-22T16:44:10.629Z,7.60
2019-02-22T16:46:39.977Z,7.50
2019-02-22T16:49:09.342Z,7.60
2019-02-22T16:51:38.748Z,7.60
2019-02-22T16:54:08.142Z,7.60
2019-02-22T16:56:37.590Z,7.70
2019-02-22T16:59:07.059Z,7.70
2019-02-22T17:01:36.433Z,7.60
2019-02-22T17:04:06.247Z,7.50
2019-02-22T17:06:35.665Z,7.60
2019-02-22T17:09:06.576Z,7.60
2019-02-22T17:11:35.956Z,7.70
2019-02-22T17:14:05.452Z,7.70
2019-02-22T17:16:45.271Z,7.60
2019-02-22T17:19:06.144Z,7.60
2019-02-22T17:21:35.509Z,7.60
2019-02-22T17:24:04.998Z,7.60
2019-02-22T17:26:34.372Z,7.60
2019-02-22T17:29:03.848Z,7.60
2019-02-22T17:31:33.273Z,7.60
2019-02-22T17:34:02.647Z,7.60
2019-02-22T17:36:32.618Z,7.60
2019-02-22T17:39:02.016Z,7.60
2019-02-22T17:41:31.334Z,7.50
2019-02-22T17:44:00.830Z,7.50
2019-02-22T17:46:30.260Z,7.60
2019-02-22T17:48:59.667Z,7.50
2019-02-22T17:51:28.999Z,7.50
2019-02-22T17:54:01.704Z,7.50
2019-02-22T17:56:31.110Z,7.60
2019-02-22T17:59:00.490Z,7.50
2019-02-22T18:01:29.915Z,7.50
2019-02-22T18:03:59.352Z,7.50
2019-02-22T18:06:28.730Z,7.60
2019-02-22T18:08:58.168Z,7.60
2019-02-22T18:11:27.612Z,7.60
2019-02-22T18:13:57.005Z,7.60
2019-02-22T18:16:26.486Z,7.50
2019-02-22T18:18:55.988Z,7.50
2019-02-22T18:21:25.704Z,7.50
2019-02-22T18:23:55.098Z,7.50
2019-02-22T18:26:24.522Z,7.50
2019-02-22T18:28:54.260Z,7.40
2019-02-22T18:31:23.566Z,7.40
2019-02-22T18:33:52.960Z,7.40
2019-02-22T18:36:23.068Z,7.40
2019-02-22T18:38:52.502Z,7.40
2019-02-22T18:41:21.903Z,7.30
2019-02-22T18:43:51.328Z,7.30
2019-02-22T18:46:21.091Z,7.30
2019-02-22T18:48:50.864Z,7.20
2019-02-22T18:51:20.658Z,7.20
2019-02-22T18:53:50.182Z,7.30
2019-02-22T18:56:19.588Z,7.30
2019-02-22T18:58:48.932Z,7.20
2019-02-22T19:01:18.343Z,7.20
2019-02-22T19:03:48.515Z,7.20
2019-02-22T19:06:18.588Z,7.20
2019-02-22T19:08:48.100Z,7.20
2019-02-22T19:11:17.472Z,7.10
2019-02-22T19:13:47.742Z,7.10
2019-02-22T19:16:17.044Z,7.10
2019-02-22T19:18:46.444Z,7.00
2019-02-22T19:21:15.805Z,6.90
2019-02-22T19:23:45.120Z,6.90
2019-02-22T19:26:14.520Z,6.90
2019-02-22T19:28:43.985Z,6.80
2019-02-22T19:31:13.405Z,6.80
2019-02-22T19:33:42.829Z,6.80
2019-02-22T19:36:12.259Z,6.70
2019-02-22T19:38:41.665Z,6.60
2019-02-22T19:41:11.130Z,6.60
2019-02-22T19:43:40.575Z,6.60
2019-02-22T19:46:09.972Z,6.60
2019-02-22T19:48:39.397Z,6.50
2019-02-22T19:51:08.750Z,6.50
2019-02-22T19:53:38.533Z,6.50
2019-02-22T19:56:07.899Z,6.40
2019-02-22T19:58:37.252Z,6.30
2019-02-22T20:01:06.603Z,6.30
2019-02-22T20:03:35.948Z,6.20
2019-02-22T20:06:05.446Z,6.20
2019-02-22T20:08:34.861Z,6.10
2019-02-22T20:11:23.352Z,6.00
2019-02-22T20:13:52.770Z,6.00
2019-02-22T20:16:22.215Z,6.00
2019-02-22T20:18:51.620Z,6.00
2019-02-22T20:21:21.048Z,5.90
2019-02-22T20:23:50.396Z,5.90
2019-02-22T20:26:19.813Z,5.90
2019-02-22T20:28:49.199Z,5.80
2019-02-22T20:31:20.557Z,5.60
2019-02-22T20:33:49.961Z,5.70
2019-02-22T20:36:27.975Z,5.70
2019-02-22T20:38:50.819Z,5.80
2019-02-22T20:41:20.199Z,5.80
2019-02-22T20:43:49.475Z,5.50
2019-02-22T20:46:18.793Z,5.50
2019-02-22T20:48:48.223Z,5.50
2019-02-22T20:51:18.506Z,5.50
2019-02-22T20:53:48.166Z,5.40
2019-02-22T20:56:17.585Z,5.20
2019-02-22T20:58:47.596Z,5.10
2019-02-22T21:01:17.008Z,5.10
2019-02-22T21:03:47.112Z,5.10
2019-02-22T21:06:16.573Z,5.00
2019-02-22T21:08:45.931Z,5.10
2019-02-22T21:11:15.321Z,5.10
2019-02-22T21:13:44.784Z,4.90
2019-02-22T21:16:14.386Z,4.70
2019-02-22T21:18:46.162Z,4.70
2019-02-22T21:21:14.851Z,4.70
2019-02-22T21:23:44.229Z,4.70
2019-02-22T21:26:13.699Z,4.80
2019-02-22T21:28:43.704Z,4.80
2019-02-22T21:31:13.062Z,4.80
2019-02-22T21:33:42.417Z,4.80
2019-02-22T21:36:12.211Z,4.80
2019-02-22T21:38:42.243Z,4.80
2019-02-22T21:41:11.719Z,4.70
2019-02-22T21:43:41.479Z,4.60
2019-02-22T21:46:10.816Z,4.60
2019-02-22T21:48:40.597Z,4.60
2019-02-22T21:51:09.999Z,4.60
2019-02-22T21:53:39.417Z,4.60
2019-02-22T21:56:08.769Z,4.60
2019-02-22T21:58:38.243Z,4.50
2019-02-22T22:01:07.659Z,4.50
2019-02-22T22:03:37.451Z,4.40
2019-02-22T22:06:06.753Z,4.30
2019-02-22T22:08:36.603Z,4.30
2019-02-22T22:11:06.014Z,4.20
2019-02-22T22:13:35.501Z,4.20
2019-02-22T22:16:05.223Z,4.30
2019-02-22T22:18:38.786Z,4.30
2019-02-22T22:21:05.739Z,4.30
2019-02-22T22:23:35.135Z,4.20
2019-02-22T22:26:04.535Z,4.10
2019-02-22T22:28:33.943Z,4.10
2019-02-22T22:31:03.336Z,4.10
2019-02-22T22:33:32.793Z,4.10
2019-02-22T22:36:02.145Z,4.00
2019-02-22T22:38:31.531Z,4.00
2019-02-22T22:41:01.343Z,4.00
2019-02-22T22:43:30.727Z,4.00
2019-02-22T22:46:00.176Z,4.00
2019-02-22T22:48:29.563Z,4.00
2019-02-22T22:50:58.993Z,4.00
2019-02-22T22:53:28.470Z,3.90
2019-02-22T22:55:57.879Z,3.70
2019-02-22T22:58:27.635Z,3.80
2019-02-22T23:01:07.881Z,3.80
2019-02-22T23:03:37.975Z,3.80
2019-02-22T23:06:09.183Z,3.70
2019-02-22T23:08:38.582Z,3.70
2019-02-22T23:11:07.931Z,3.70
2019-02-22T23:13:37.339Z,3.70
2019-02-22T23:16:07.375Z,3.60
2019-02-22T23:18:37.206Z,3.50
2019-02-22T23:21:07.007Z,3.40
2019-02-22T23:23:36.395Z,3.40
2019-02-22T23:26:06.071Z,3.50
2019-02-22T23:28:35.416Z,3.40
2019-02-22T23:31:04.762Z,3.30
2019-02-22T23:33:34.114Z,3.30
2019-02-22T23:36:03.533Z,3.30
2019-02-22T23:38:32.909Z,3.30
2019-02-22T23:41:02.269Z,3.30
2019-02-22T23:43:31.665Z,3.20
2019-02-22T23:46:01.114Z,3.30
2019-02-22T23:48:30.522Z,3.20
2019-02-22T23:50:59.908Z,3.30
2019-02-22T23:53:29.895Z,3.20
2019-02-22T23:55:59.271Z,3.30
2019-02-22T23:58:28.693Z,3.30
